AirNav   TITAN Aviation Fuels
 
 718 users online  

N21 Holly Ridge/Topsail Island Airport
Holly Ridge, North Carolina, USA

GOING TO HOLLY RIDGE?


FAA INFORMATION EFFECTIVE 11 AUGUST 2022

Location

FAA Identifier: N21
Lat/Long: 34-29-25.7705N 077-31-55.6500W
34-29.429508N 077-31.927500W
34.4904918,-77.5321250
(estimated)
Elevation: 48 ft. / 15 m (estimated)
Variation: 08W (1985)
From city: 1 mile SE of HOLLY RIDGE, NC
Time zone: UTC -4 (UTC -5 during Standard Time)
Zip code: 28445

Airport Operations

Airport use: Open to the public
Activation date: 04/1980
Control tower: no
ARTCC: WASHINGTON CENTER
FSS: RALEIGH FLIGHT SERVICE STATION
NOTAMs facility: RDU (NOTAM-D service available)
Attendance: IREG
Wind indicator: yes
Segmented circle: no
Lights: SS-SR

Airport Communications

CTAF: 122.9
WX ASOS at NCA (14 nm N): 288.325

Nearby radio navigation aids

VOR radial/distance  VOR name  Freq  Var
ILMr071/18.9WILMINGTON VORTAC117.0007W

 
NDB name  Hdg/Dist  Freq  Var  ID
DIXON228/6.119808WDIW -.. .. .--

Airport Services

Parking: tiedowns

Runway Information

Runway 14/32

Dimensions: 3591 x 88 ft. / 1095 x 27 m
Surface: turf, in good condition
Runway edge lights: non-standard
LGTD THR RWY 14 RELCTD 925 FT; RWY 32 LGTD THR RELCTD 600 FT; 2000 FT OF RWY 14/32 USBL FOR NGT OPS.
RUNWAY 14  RUNWAY 32
Latitude: 34-29.626833N34-29.232333N
Longitude: 077-32.194333W077-31.660667W
Elevation: 48.0 ft.35.0 ft.
Traffic pattern: leftleft
Displaced threshold: 982 ft.600 ft.
Obstructions: 60 ft. pline
RWY 14 APCH RATIO 15:1 TO DSPLCD THR DUE TO 60 FT UNMKD PWR LN;
35 ft. pline, marked, 74 ft. from runway, 1:1 slope to clear
RWY 32 APCH SLOPE 17:1 TO DSPLCD THR DUE TO 38 FT MKR PWR LN; RWY 32 HAS A ROAD 135 FT FM END OF RWY.

Airport Ownership and Management from official FAA records

Ownership: Privately-owned
Owner: NEW HANNOVER AIRPORT LLC
PO BOX 3274
TOPSAIL BEACH, NC 28445
Phone 734-516-0330
Manager: MICHAEL D SOIGNET
PO BOX 3274
HOLLY RIDGE, NC 28445
Phone 734-516-0330

Airport Operational Statistics

Aircraft based on the field: 3
Single engine airplanes: 3
    
Aircraft operations: avg 88/week *
54% transient general aviation
43% local general aviation
2% military
* for 12-month period ending 13 June 2019

Additional Remarks

A51 DSPLCD THRS INDCD BY END OF RWY LGTS AND YELLOW CONES.
DEER ON & INVOF ARPT.
FOR CD CTC WASHINGTON ARTCC AT 703-771-3587.

Instrument Procedures

There are no published instrument procedures at N21.

Some nearby airports with instrument procedures:

KNCA - New River Marine Corps Air Station (McCutcheon Field) Airport (14 nm N)
KOAJ - Albert J Ellis Airport (21 nm N)
KILM - Wilmington International Airport (23 nm SW)
KACZ - Henderson Field Airport (27 nm NW)
KDPL - Duplin County Airport (38 nm NW)
 
Loc | Ops | Rwys | IFR | FBO | Links
Com | Nav | Svcs | Stats | Notes
Area around N21 (Holly Ridge/Topsail Island Airport)
 
Road maps at: MapQuest Bing Google
 
Aerial photo
WARNING: Photo may not be current or correct
Aerial photo of N21 (Holly Ridge/Topsail Island Airport)
Photo by Joe Freeman
Photo taken 08-Dec-2011
looking northwest.

Do you have a better or more recent aerial photo of Holly Ridge/Topsail Island Airport that you would like to share? If so, please send us your photo.

 
Sectional chart

 
Airport distance calculator
Flying to Holly Ridge/Topsail Island Airport? Find the distance to fly.

From to N21

Sunrise and sunset
Times for 17-Aug-2022
 Local
(UTC-4)
 Zulu
(UTC)
Morning civil twilight06:0710:07
Sunrise06:3310:33
Sunset19:5523:55
Evening civil twilight20:2100:21

Current date and time
Zulu (UTC)  17-Aug-2022 05:54:31
Local (UTC-4)  17-Aug-2022 01:54:31
 
METAR
KNCA 
14nm N 
170456Z AUTO 36006KT 10SM CLR 22/21 A2992 RMK AO2 SLP133 T02170206 402830200
KOAJ 
20nm N 
170456Z AUTO 02003KT 10SM OVC075 22/20 A2994 RMK AO2 SLP140 T02170200 402780189
KILM 
23nm SW 
170453Z 02007KT 10SM FEW070 FEW100 23/22 A2991 RMK AO2 RAB37E50 SLP127 P0000 T02330217 402890217 $
KNJM 
28nm NE 
170457Z AUTO 36006KT 10SM CLR 24/21 A2992 RMK AO2 SLP134 T02390206 402940222
TAF
KNCA 
14nm N 
1703/1803 03006KT 9999 FEW045 SCT150 QNH2988INS FM170800 03006KT 9999 SCT060 QNH2990INS BECMG 1718/1720 01008KT 9999 SCT030 BKN060 QNH2992INS T19/1709Z T28/1719Z
NOTAMs
Click for the latest NOTAMs
NOTAMs are issued by the DoD/FAA and will open in a separate window not controlled by AirNav.

 

 
 

Would you like to see your business listed on this page?

 If your business provides an interesting product or service to pilots, flight crews, aircraft, or users of the Holly Ridge/Topsail Island Airport, you should consider listing it here.  To start the listing process, click on the button below
 
Add a business
 

Other Pages about Holly Ridge/Topsail Island Airport

Update a link
 
Copyright © AirNav, LLC. All rights reserved. Privacy Policy  Contact